createdAt,value
2019-01-12T00:00:05.306Z,28.7
2019-01-12T00:00:55.918Z,28.6
2019-01-12T00:01:45.711Z,28.4
2019-01-12T00:02:34.891Z,28.3
2019-01-12T00:03:26.141Z,28.1
2019-01-12T00:04:15.574Z,27.9
2019-01-12T00:05:05.086Z,27.7
2019-01-12T00:05:56.546Z,27.5
2019-01-12T00:06:46.647Z,27.3
2019-01-12T00:07:35.577Z,27.1
2019-01-12T00:08:26.178Z,26.9
2019-01-12T00:09:17.761Z,26.8
2019-01-12T00:10:05.780Z,26.6
2019-01-12T00:10:55.834Z,26.5
2019-01-12T00:11:46.439Z,26.4
2019-01-12T00:12:35.650Z,26.3
2019-01-12T00:13:25.790Z,26.3
2019-01-12T00:14:15.778Z,26.2
2019-01-12T00:15:05.700Z,26.1
2019-01-12T00:15:55.428Z,26
2019-01-12T00:34:18.846Z,23
2019-01-12T00:35:08.396Z,22.9
2019-01-12T00:35:58.914Z,22.8
2019-01-12T00:36:48.956Z,22.7
2019-01-12T00:37:38.224Z,22.6
2019-01-12T00:38:28.579Z,22.6
2019-01-12T00:39:18.156Z,22.4
2019-01-12T00:40:08.939Z,22.4
2019-01-12T00:40:58.476Z,22.3
2019-01-12T00:41:48.239Z,22.2
2019-01-12T00:42:39.081Z,22.1
2019-01-12T00:43:29.718Z,22.1
2019-01-12T00:44:18.395Z,22.1
2019-01-12T00:45:09.286Z,22
2019-01-12T00:46:49.369Z,24.5
2019-01-12T00:47:41.068Z,25.4
2019-01-12T00:48:28.958Z,26
2019-01-12T00:49:19.843Z,26.5
2019-01-12T00:50:09.311Z,26.8
2019-01-12T00:50:59.703Z,27.1
2019-01-12T00:51:49.470Z,27.2
2019-01-12T00:52:39.264Z,27.2
2019-01-12T00:53:28.529Z,27.1
2019-01-12T00:54:19.645Z,27
2019-01-12T00:55:09.672Z,26.9
2019-01-12T00:55:59.998Z,26.8
2019-01-12T00:56:49.769Z,26.7
2019-01-12T00:57:40.115Z,26.5
2019-01-12T00:58:29.871Z,26.4
2019-01-12T00:59:20.305Z,26.3
2019-01-12T01:00:10.887Z,26.1
2019-01-12T01:00:59.855Z,25.9
2019-01-12T01:01:49.672Z,25.8
2019-01-12T01:02:39.190Z,25.7
2019-01-12T01:03:29.746Z,25.6
2019-01-12T01:04:20.322Z,25.5
2019-01-12T01:05:09.347Z,25.4
2019-01-12T01:05:59.649Z,25.3
2019-01-12T01:06:49.135Z,25.1
2019-01-12T01:07:40.756Z,24.8
2019-01-12T01:08:30.266Z,24.5
2019-01-12T01:09:20.771Z,24.3
2019-01-12T01:10:10.822Z,24.1
2019-01-12T01:11:00.457Z,23.8
2019-01-12T01:11:50.224Z,23.6
2019-01-12T01:12:40.836Z,23.4
2019-01-12T01:13:31.212Z,23.3
2019-01-12T01:14:21.779Z,23.1
2019-01-12T01:15:11.646Z,22.9
2019-01-12T01:16:00.019Z,22.8
2019-01-12T01:16:50.939Z,22.8
2019-01-12T01:17:41.284Z,22.6
2019-01-12T01:18:30.796Z,22.5
2019-01-12T01:19:20.530Z,22.4
2019-01-12T01:20:11.686Z,22.3
2019-01-12T01:21:01.393Z,22.3
2019-01-12T01:21:51.198Z,22.2
2019-01-12T01:22:42.089Z,22.1
2019-01-12T01:23:31.848Z,22
2019-01-12T01:24:21.342Z,22
2019-01-12T01:25:12.371Z,21.9
2019-01-12T01:26:02.621Z,21.8
2019-01-12T01:26:52.618Z,21.8
2019-01-12T01:27:41.896Z,21.7
2019-01-12T01:28:32.471Z,21.6
2019-01-12T01:29:22.808Z,21.6
2019-01-12T01:30:12.049Z,21.4
2019-01-12T01:31:01.870Z,21.4
2019-01-12T01:31:51.883Z,21.3
2019-01-12T01:32:41.995Z,21.2
2019-01-12T01:33:37.220Z,21.1
2019-01-12T01:34:22.881Z,20.9
2019-01-12T01:35:12.147Z,20.9
2019-01-12T01:36:03.252Z,20.8
2019-01-12T01:36:53.034Z,20.7
2019-01-12T01:37:43.637Z,20.6
2019-01-12T01:38:32.650Z,20.6
2019-01-12T01:39:22.655Z,20.6
2019-01-12T01:40:12.420Z,20.6
2019-01-12T01:41:03.407Z,20.5
2019-01-12T01:41:52.059Z,20.5
2019-01-12T01:42:42.707Z,20.5
2019-01-12T01:43:32.760Z,20.4
2019-01-12T01:44:22.297Z,20.4
2019-01-12T01:45:13.166Z,20.4
2019-01-12T01:46:02.947Z,20.4
2019-01-12T01:46:53.176Z,20.4
2019-01-12T01:47:43.819Z,20.4
2019-01-12T01:48:34.107Z,20.4
2019-01-12T01:49:23.324Z,20.4
2019-01-12T01:50:14.199Z,20.4
2019-01-12T01:51:03.552Z,21
2019-01-12T01:51:53.292Z,22.9
2019-01-12T01:52:43.059Z,24.3
2019-01-12T01:53:33.061Z,25.3
2019-01-12T01:54:24.754Z,26.1
2019-01-12T01:55:13.779Z,26.6
2019-01-12T01:56:03.504Z,26.9
2019-01-12T01:56:53.329Z,27.1
2019-01-12T01:57:44.207Z,27.2
2019-01-12T01:58:34.261Z,27.1
2019-01-12T01:59:24.282Z,26.9
2019-01-12T02:00:14.361Z,26.8
2019-01-12T02:01:04.706Z,26.7
2019-01-12T02:01:54.250Z,26.5
2019-01-12T02:02:44.500Z,26.3
2019-01-12T02:03:35.140Z,26.1
2019-01-12T02:04:24.896Z,25.9
2019-01-12T02:05:14.118Z,25.7
2019-01-12T02:06:03.408Z,25.6
2019-01-12T02:06:55.358Z,25.4
2019-01-12T02:07:45.441Z,25.2
2019-01-12T02:08:35.522Z,24.9
2019-01-12T02:09:24.940Z,24.8
2019-01-12T02:10:15.886Z,24.5
2019-01-12T02:11:04.593Z,24.3
2019-01-12T02:11:55.223Z,24
2019-01-12T02:12:45.262Z,23.8
2019-01-12T02:13:34.714Z,23.6
2019-01-12T02:14:26.790Z,23.4
2019-01-12T02:15:14.878Z,23.2
2019-01-12T02:16:05.133Z,23
2019-01-12T02:16:54.917Z,22.9
2019-01-12T02:17:45.617Z,22.7
2019-01-12T02:18:35.307Z,22.6
2019-01-12T02:19:25.431Z,22.4
2019-01-12T02:20:15.223Z,22.3
2019-01-12T02:21:05.762Z,22.2
2019-01-12T02:21:55.799Z,22.1
2019-01-12T02:22:46.438Z,22
2019-01-12T02:23:35.642Z,21.9
2019-01-12T02:24:26.035Z,21.8
2019-01-12T02:25:16.327Z,21.6
2019-01-12T02:26:06.659Z,21.6
2019-01-12T02:26:55.373Z,21.5
2019-01-12T02:27:46.204Z,21.5
2019-01-12T02:28:36.816Z,21.4
2019-01-12T02:29:26.316Z,21.4
2019-01-12T02:30:16.189Z,21.3
2019-01-12T02:31:06.789Z,21.3
2019-01-12T02:31:56.368Z,21.2
2019-01-12T02:32:46.987Z,21.2
2019-01-12T02:34:26.580Z,21.4
2019-01-12T02:35:16.810Z,22.6
2019-01-12T02:36:06.253Z,23.5
2019-01-12T02:36:57.841Z,24.2
2019-01-12T02:37:47.496Z,24.6
2019-01-12T02:38:37.261Z,24.9
2019-01-12T02:39:27.405Z,25.2
2019-01-12T02:40:17.034Z,25.3
2019-01-12T02:41:06.430Z,25.3
2019-01-12T02:41:57.476Z,25.3
2019-01-12T02:42:47.013Z,25.2
2019-01-12T02:43:36.492Z,25.1
2019-01-12T02:44:27.666Z,24.9
2019-01-12T02:45:17.201Z,24.7
2019-01-12T02:46:07.860Z,24.5
2019-01-12T02:46:57.265Z,24.3
2019-01-12T02:47:47.647Z,24
2019-01-12T02:48:37.916Z,23.8
2019-01-12T02:49:28.306Z,23.6
2019-01-12T02:50:18.402Z,23.4
2019-01-12T02:51:07.278Z,23.3
2019-01-12T02:51:57.635Z,23.1
2019-01-12T02:52:47.680Z,22.9
2019-01-12T02:53:38.570Z,22.8
2019-01-12T02:54:27.768Z,22.6
2019-01-12T02:55:18.610Z,22.4
2019-01-12T02:56:08.213Z,22.3
2019-01-12T02:56:58.499Z,22.1
2019-01-12T02:57:48.200Z,21.9
2019-01-12T02:58:38.650Z,21.9
2019-01-12T02:59:28.687Z,21.8
2019-01-12T03:00:19.385Z,21.6
2019-01-12T03:01:08.311Z,21.6
2019-01-12T03:01:59.085Z,21.5
2019-01-12T03:02:48.631Z,21.4
2019-01-12T03:03:38.417Z,21.4
2019-01-12T03:04:28.318Z,21.3
2019-01-12T03:05:18.840Z,21.2
2019-01-12T03:06:58.895Z,21.1
2019-01-12T03:07:47.676Z,21
2019-01-12T03:08:39.317Z,20.9
2019-01-12T03:09:28.777Z,20.9
2019-01-12T03:10:19.500Z,20.8
2019-01-12T03:11:09.759Z,20.8
2019-01-12T03:11:59.789Z,20.7
2019-01-12T03:12:48.489Z,20.6
2019-01-12T03:13:39.973Z,20.6
2019-01-12T03:14:28.932Z,20.4
2019-01-12T03:15:18.534Z,20.4
2019-01-12T03:16:09.112Z,20.3
2019-01-12T03:17:00.162Z,20.2
2019-01-12T03:17:49.424Z,20.1
2019-01-12T03:18:39.992Z,19.9
2019-01-12T03:19:30.388Z,19.8
2019-01-12T03:20:19.586Z,19.8
2019-01-12T03:21:10.522Z,19.7
2019-01-12T03:22:00.856Z,19.7
2019-01-12T03:22:50.111Z,19.7
2019-01-12T03:23:39.808Z,19.7
2019-01-12T03:24:29.941Z,19.6
2019-01-12T03:25:29.201Z,19.6
2019-01-12T03:26:09.992Z,19.6
2019-01-12T03:26:59.998Z,19.6
2019-01-12T03:27:49.867Z,19.6
2019-01-12T03:28:40.219Z,19.6
2019-01-12T03:29:30.109Z,19.6
2019-01-12T03:30:21.081Z,19.6
2019-01-12T03:31:11.226Z,19.5
2019-01-12T03:32:01.330Z,19.5
2019-01-12T03:32:50.554Z,19.6
2019-01-12T03:33:41.110Z,19.6
2019-01-12T03:34:30.475Z,19.6
2019-01-12T03:35:21.365Z,19.6
2019-01-12T03:36:10.683Z,19.6
2019-01-12T03:37:00.657Z,19.6
2019-01-12T03:37:51.325Z,19.6
2019-01-12T03:38:40.079Z,19.6
2019-01-12T03:39:31.099Z,19.7
2019-01-12T03:40:21.868Z,20.1
2019-01-12T03:41:11.835Z,21.6
2019-01-12T03:42:00.228Z,22.8
2019-01-12T03:42:51.390Z,23.7
2019-01-12T03:43:41.390Z,24.3
2019-01-12T03:44:31.618Z,24.8
2019-01-12T03:45:21.860Z,25
2019-01-12T03:46:11.675Z,25.1
2019-01-12T03:47:02.154Z,25.1
2019-01-12T03:47:52.042Z,25.1
2019-01-12T03:48:41.772Z,25
2019-01-12T03:49:32.084Z,24.8
2019-01-12T03:50:21.965Z,24.6
2019-01-12T03:51:10.594Z,24.3
2019-01-12T03:52:02.201Z,24.1
2019-01-12T03:52:52.616Z,23.8
2019-01-12T03:53:41.569Z,23.6
2019-01-12T03:54:31.279Z,23.4
2019-01-12T03:55:30.295Z,23.2
2019-01-12T03:56:11.712Z,23
2019-01-12T03:57:02.321Z,22.8
2019-01-12T03:57:52.662Z,22.6
2019-01-12T03:58:41.452Z,22.4
2019-01-12T03:59:32.446Z,22.3
2019-01-12T04:00:23.113Z,22.1
2019-01-12T04:01:12.933Z,21.9
2019-01-12T04:02:02.691Z,21.8
2019-01-12T04:02:53.263Z,21.7
2019-01-12T04:03:43.072Z,21.6
2019-01-12T04:04:32.890Z,21.5
2019-01-12T04:05:22.885Z,21.4
2019-01-12T04:06:13.466Z,21.3
2019-01-12T04:07:02.702Z,21.2
2019-01-12T04:08:43.173Z,21.1
2019-01-12T04:09:32.880Z,20.9
2019-01-12T04:10:23.028Z,20.8
2019-01-12T04:11:13.602Z,20.8
2019-01-12T04:12:03.598Z,20.6
2019-01-12T04:12:53.680Z,20.6
2019-01-12T04:13:43.973Z,20.6
2019-01-12T04:14:33.212Z,20.6
2019-01-12T04:15:23.593Z,20.6
2019-01-12T04:16:13.581Z,20.4
2019-01-12T04:17:03.943Z,20.4
2019-01-12T04:17:54.056Z,20.4
2019-01-12T04:18:44.020Z,20.4
2019-01-12T04:19:34.113Z,20.4
2019-01-12T04:20:23.108Z,20.4
2019-01-12T04:21:12.543Z,20.3
2019-01-12T04:22:04.267Z,20.3
2019-01-12T04:22:54.673Z,20.3
2019-01-12T04:23:43.877Z,20.3
2019-01-12T04:24:34.771Z,21.3
2019-01-12T04:25:42.467Z,22.3
2019-01-12T04:26:13.731Z,23.2
2019-01-12T04:27:04.622Z,23.5
2019-01-12T04:27:53.889Z,23.8
2019-01-12T04:28:44.282Z,23.8
2019-01-12T04:29:34.291Z,23.9
2019-01-12T04:30:24.437Z,23.8
2019-01-12T04:31:14.002Z,23.7
2019-01-12T04:32:04.463Z,23.6
2019-01-12T04:32:53.504Z,23.5
2019-01-12T04:33:43.747Z,23.4
2019-01-12T04:34:34.674Z,23.3
2019-01-12T04:35:25.464Z,23.1
2019-01-12T04:36:14.740Z,22.9
2019-01-12T04:37:04.699Z,22.7
2019-01-12T04:37:55.334Z,22.5
2019-01-12T04:38:44.593Z,22.3
2019-01-12T04:39:36.030Z,22.2
2019-01-12T04:40:25.306Z,22
2019-01-12T04:41:15.039Z,21.8
2019-01-12T04:42:05.351Z,21.8
2019-01-12T04:42:54.945Z,21.6
2019-01-12T04:43:45.753Z,21.4
2019-01-12T04:44:34.927Z,21.3
2019-01-12T04:45:25.839Z,21.3
2019-01-12T04:46:16.253Z,21.2
2019-01-12T05:03:29.665Z,19.6
2019-01-12T05:04:19.415Z,19.6
2019-01-12T05:05:10.180Z,19.6
2019-01-12T05:06:44.400Z,19.6
2019-01-12T05:07:11.673Z,19.5
2019-01-12T05:08:16.101Z,19.5
2019-01-12T05:08:52.703Z,19.4
2019-01-12T05:09:25.714Z,19.5
2019-01-12T05:10:31.684Z,19.4
2019-01-12T05:11:05.903Z,19.4
2019-01-12T05:12:43.689Z,19.4
2019-01-12T05:12:55.340Z,19.4
2019-01-12T05:14:01.146Z,19.4
2019-01-12T05:14:39.317Z,19.5
2019-01-12T05:15:39.914Z,19.5
2019-01-12T05:16:31.120Z,19.5
2019-01-12T05:17:20.071Z,19.6
2019-01-12T05:17:56.567Z,20.9
2019-01-12T05:18:46.077Z,21.6
2019-01-12T05:20:20.210Z,22.7
2019-01-12T05:20:33.579Z,23.3
2019-01-12T05:21:51.356Z,23.4
2019-01-12T05:22:26.728Z,23.4
2019-01-12T05:23:16.831Z,23.4
2019-01-12T09:17:52.240Z,17.9
2019-01-12T09:18:42.268Z,17.8
2019-01-12T09:19:32.635Z,17.8
2019-01-12T09:20:22.607Z,17.8
2019-01-12T09:21:12.440Z,17.6
2019-01-12T09:22:01.985Z,17.6
2019-01-12T09:22:52.820Z,17.5
2019-01-12T09:23:42.943Z,17.4
2019-01-12T09:24:32.363Z,17.4
2019-01-12T09:25:23.028Z,17.3
2019-01-12T09:26:12.800Z,17.3
2019-01-12T09:27:02.815Z,17.3
2019-01-12T09:27:52.911Z,17.2
2019-01-12T09:28:42.992Z,17.1
2019-01-12T09:29:32.982Z,17.1
2019-01-12T09:31:12.811Z,16.9
2019-01-12T09:32:02.305Z,16.9
2019-01-12T09:32:53.511Z,16.8
2019-01-12T09:33:43.049Z,16.8
2019-01-12T09:34:33.419Z,16.8
2019-01-12T09:35:23.680Z,16.7
2019-01-12T09:36:13.189Z,16.6
2019-01-12T09:37:02.745Z,16.6
2019-01-12T09:37:52.870Z,16.6
2019-01-12T09:38:42.016Z,16.6
2019-01-12T09:39:33.487Z,16.5
2019-01-12T09:40:24.398Z,16.4
2019-01-12T09:41:13.783Z,16.4
2019-01-12T09:42:03.833Z,16.4
2019-01-12T09:42:54.198Z,16.4
2019-01-12T09:43:43.665Z,16.3
2019-01-12T09:44:34.170Z,16.3
2019-01-12T09:45:24.158Z,16.3
2019-01-12T09:46:13.637Z,16.3
2019-01-12T09:47:03.468Z,16.2
2019-01-12T09:47:53.510Z,16.2
2019-01-12T09:48:43.592Z,16.1
2019-01-12T09:49:33.624Z,16.1
2019-01-12T09:50:22.415Z,16.1
2019-01-12T09:51:13.517Z,16.1
2019-01-12T09:52:04.330Z,16.1
2019-01-12T09:52:53.895Z,16.1
2019-01-12T09:53:44.712Z,16
2019-01-12T09:54:34.271Z,16.1
2019-01-12T09:55:23.455Z,16.1
2019-01-12T09:56:14.537Z,16.1
2019-01-12T09:57:05.157Z,16.1
2019-01-12T09:57:54.492Z,16.2
2019-01-12T09:58:44.766Z,16.3
2019-01-12T09:59:36.934Z,16.4
2019-01-12T10:00:24.577Z,16.4
2019-01-12T10:01:14.586Z,16.5
2019-01-12T10:02:05.626Z,16.6
2019-01-12T10:02:55.189Z,16.6
2019-01-12T10:03:44.004Z,16.7
2019-01-12T10:04:35.671Z,16.8
2019-01-12T10:05:24.442Z,16.9
2019-01-12T10:06:15.021Z,16.9
2019-01-12T10:09:35.991Z,17.1
2019-01-12T10:10:26.802Z,17.1
2019-01-12T10:11:14.794Z,17.1
2019-01-12T10:12:05.429Z,17.2
2019-01-12T10:12:55.256Z,17.3
2019-01-12T10:13:44.684Z,17.4
2019-01-12T10:14:35.299Z,17.4
2019-01-12T10:15:25.976Z,17.4
2019-01-12T10:16:15.688Z,17.5
2019-01-12T10:17:06.201Z,17.5
2019-01-12T10:17:55.841Z,17.5
2019-01-12T10:18:44.778Z,17.6
2019-01-12T10:19:35.356Z,17.6
2019-01-12T10:20:26.478Z,17.6
2019-01-12T10:21:15.063Z,17.8
2019-01-12T10:22:05.855Z,17.8
2019-01-12T10:22:55.566Z,17.9
2019-01-12T10:23:45.585Z,17.9
2019-01-12T10:24:37.028Z,18
2019-01-12T10:25:27.088Z,18
2019-01-12T10:26:17.153Z,18.1
2019-01-12T10:27:08.323Z,18.1
2019-01-12T10:27:56.995Z,18.2
2019-01-12T10:28:47.053Z,18.2
2019-01-12T10:29:37.135Z,18.3
2019-01-12T10:30:26.907Z,18.3
2019-01-12T10:31:16.777Z,18.4
2019-01-12T10:32:06.955Z,18.4
2019-01-12T10:32:57.790Z,18.4
2019-01-12T10:33:47.803Z,18.4
2019-01-12T10:34:37.202Z,18.4
2019-01-12T10:35:27.005Z,18.4
2019-01-12T10:36:17.351Z,18.4
2019-01-12T10:37:06.279Z,18.4
2019-01-12T10:37:57.374Z,18.4
2019-01-12T10:38:47.480Z,18.4
2019-01-12T10:39:37.760Z,18.3
2019-01-12T10:40:26.851Z,18.3
2019-01-12T10:41:18.224Z,18.4
2019-01-12T10:42:07.617Z,19.1
2019-01-12T10:42:58.022Z,19.5
2019-01-12T10:43:47.229Z,19.8
2019-01-12T10:44:38.117Z,19.8
2019-01-12T10:45:28.154Z,19.8
2019-01-12T10:46:17.649Z,19.7
2019-01-12T10:47:08.061Z,19.5
2019-01-12T10:47:58.609Z,19.4
2019-01-12T10:48:48.111Z,19.3
2019-01-12T10:49:37.881Z,19.1
2019-01-12T10:50:28.236Z,18.9
2019-01-12T10:51:18.059Z,18.9
2019-01-12T10:52:08.337Z,18.8
2019-01-12T10:52:58.390Z,18.6
2019-01-12T10:55:14.949Z,18.6
2019-01-12T10:56:04.233Z,18.5
2019-01-12T10:56:55.178Z,18.5
2019-01-12T10:57:44.357Z,18.4
2019-01-12T10:58:34.661Z,18.4
2019-01-12T10:59:24.408Z,18.4
2019-01-12T11:00:13.746Z,18.4
2019-01-12T11:01:04.573Z,18.4
2019-01-12T11:01:54.886Z,18.4
2019-01-12T11:02:44.670Z,18.4
2019-01-12T11:03:35.001Z,18.4
2019-01-12T11:04:25.881Z,18.4
2019-01-12T11:05:14.881Z,18.3
2019-01-12T11:06:04.903Z,18.3
2019-01-12T11:06:55.846Z,18.3
2019-01-12T11:07:46.904Z,18.2
2019-01-12T11:08:34.863Z,18.1
2019-01-12T11:09:24.323Z,17.9
2019-01-12T11:10:15.261Z,17.8
2019-01-12T11:11:04.812Z,17.8
2019-01-12T11:11:55.112Z,17.8
2019-01-12T11:12:45.395Z,17.8
2019-01-12T11:13:35.720Z,17.8
2019-01-12T11:14:25.510Z,17.8
2019-01-12T11:15:16.996Z,17.9
2019-01-12T11:16:05.612Z,17.9
2019-01-12T11:16:55.220Z,17.9
2019-01-12T11:17:45.537Z,17.9
2019-01-12T11:18:35.087Z,17.9
2019-01-12T11:19:25.242Z,17.9
2019-01-12T11:20:15.642Z,17.9
2019-01-12T11:21:06.729Z,17.9
2019-01-12T11:21:56.219Z,17.9
2019-01-12T11:22:46.007Z,18
2019-01-12T11:23:36.321Z,18
2019-01-12T11:24:25.574Z,18
2019-01-12T11:25:17.020Z,18.1
2019-01-12T11:26:06.801Z,18.1
2019-01-12T11:26:56.619Z,18.1
2019-01-12T11:27:46.360Z,18.1
2019-01-12T11:28:36.415Z,18.2
2019-01-12T11:29:26.724Z,18.3
2019-01-12T11:30:16.871Z,18.3
2019-01-12T11:31:06.871Z,18.3
2019-01-12T11:31:56.424Z,18.3
2019-01-12T11:32:47.292Z,18.3
2019-01-12T11:33:35.789Z,18.4
2019-01-12T11:34:26.616Z,18.4
2019-01-12T11:35:16.689Z,18.4
2019-01-12T11:36:06.431Z,18.4
2019-01-12T11:36:55.781Z,18.5
2019-01-12T11:37:46.454Z,18.9
2019-01-12T11:38:35.596Z,19.2
2019-01-12T11:39:26.009Z,19.3
2019-01-12T11:40:16.794Z,19.3
2019-01-12T11:41:06.389Z,19.3
2019-01-12T11:41:57.331Z,19.2
2019-01-12T11:42:47.423Z,19
2019-01-12T11:43:37.228Z,18.9
2019-01-12T11:44:27.545Z,18.8
2019-01-12T11:45:17.890Z,18.6
2019-01-12T11:46:07.931Z,18.4
2019-01-12T11:46:58.508Z,18.3
2019-01-12T11:47:47.203Z,18.3
2019-01-12T11:48:37.505Z,18.2
2019-01-12T11:49:28.405Z,18.2
2019-01-12T11:50:18.265Z,18.1
2019-01-12T11:51:08.503Z,18.1
2019-01-12T11:51:57.510Z,18.1
2019-01-12T11:52:48.946Z,18
2019-01-12T11:53:38.218Z,18
2019-01-12T11:54:28.205Z,18
2019-01-12T11:55:18.820Z,18
2019-01-12T11:56:07.738Z,18
2019-01-12T11:56:58.418Z,18
2019-01-12T11:57:49.118Z,18.1
2019-01-12T11:58:40.025Z,18.1
2019-01-12T11:59:28.640Z,18.1
2019-01-12T12:00:18.400Z,18.1
2019-01-12T12:01:07.492Z,18.1
2019-01-12T12:01:57.936Z,18.1
2019-01-12T12:02:48.872Z,18.2
2019-01-12T12:03:37.887Z,18.2
2019-01-12T12:04:27.667Z,18.2
2019-01-12T12:05:19.832Z,18.2
2019-01-12T12:06:08.316Z,18.3
2019-01-12T12:06:58.370Z,18.3
2019-01-12T12:07:48.672Z,18.3
2019-01-12T12:08:38.894Z,18.3
2019-01-12T12:10:19.828Z,18.8
2019-01-12T12:11:09.344Z,18.9
2019-01-12T12:12:00.216Z,18.9
2019-01-12T12:12:50.285Z,18.9
2019-01-12T12:13:40.599Z,18.9
2019-01-12T12:14:30.124Z,18.8
2019-01-12T12:16:12.766Z,18.6
2019-01-12T12:17:00.009Z,18.4
2019-01-12T12:17:50.669Z,18.3
2019-01-12T12:18:40.946Z,18.2
2019-01-12T12:19:30.268Z,18.1
2019-01-12T12:20:21.131Z,18
2019-01-12T12:21:10.898Z,17.9
2019-01-12T12:22:00.949Z,17.9
2019-01-12T12:22:50.690Z,17.9
2019-01-12T12:23:38.868Z,17.9
2019-01-12T12:24:30.815Z,17.9
2019-01-12T12:25:20.606Z,17.9
2019-01-12T12:26:10.723Z,17.9
2019-01-12T12:27:00.825Z,17.9
2019-01-12T12:27:50.767Z,17.8
2019-01-12T12:28:40.022Z,17.8
2019-01-12T12:29:30.892Z,17.9
2019-01-12T12:30:20.654Z,17.9
2019-01-12T12:31:10.975Z,17.9
2019-01-12T12:32:01.192Z,17.8
2019-01-12T12:32:51.728Z,17.8
2019-01-12T12:33:39.783Z,17.8
2019-01-12T12:34:31.005Z,17.8
2019-01-12T12:35:21.857Z,17.8
2019-01-12T12:36:10.515Z,17.7
2019-01-12T12:37:01.436Z,17.8
2019-01-12T12:37:52.579Z,17.8
2019-01-12T12:38:41.779Z,17.8
2019-01-12T12:39:31.580Z,17.8
2019-01-12T12:40:20.399Z,17.8
2019-01-12T12:41:11.519Z,17.8
2019-01-12T12:42:01.423Z,17.8
2019-01-12T12:42:51.910Z,17.9
2019-01-12T12:43:41.902Z,17.9
2019-01-12T12:44:32.545Z,18
2019-01-12T12:45:21.794Z,18.1
2019-01-12T12:46:12.654Z,18.2
2019-01-12T12:47:01.677Z,18.1
2019-01-12T12:47:52.762Z,18.1
2019-01-12T12:48:42.816Z,18.1
2019-01-12T12:49:32.529Z,18.1
2019-01-12T12:50:21.791Z,18.1
2019-01-12T12:51:11.829Z,18.1
2019-01-12T12:52:02.561Z,18
2019-01-12T12:52:51.951Z,18
2019-01-12T12:53:43.721Z,18
2019-01-12T12:54:32.113Z,18
2019-01-12T12:55:22.448Z,18
2019-01-12T12:56:13.289Z,18
2019-01-12T12:57:01.413Z,18
2019-01-12T12:57:52.901Z,18
2019-01-12T12:58:42.673Z,18.1
2019-01-12T12:59:32.828Z,18.2
2019-01-12T13:00:22.556Z,18.3
2019-01-12T13:01:13.073Z,18.4
2019-01-12T13:02:03.741Z,18.5
2019-01-12T13:02:53.472Z,18.6
2019-01-12T13:03:43.305Z,18.5
2019-01-12T13:04:33.764Z,18.4
2019-01-12T13:05:22.558Z,18.4
2019-01-12T13:06:13.148Z,18.3
2019-01-12T13:07:03.281Z,18.3
2019-01-12T13:07:54.098Z,18.1
2019-01-12T13:08:50.478Z,18.1
2019-01-12T13:09:33.447Z,18.1
2019-01-12T13:10:25.830Z,18.1
2019-01-12T13:11:12.990Z,18
2019-01-12T13:12:03.840Z,18
2019-01-12T13:12:53.967Z,18
2019-01-12T13:13:43.949Z,18.1
2019-01-12T13:14:34.325Z,18.1
2019-01-12T13:15:24.155Z,18.1
2019-01-12T13:16:14.422Z,18.1
2019-01-12T13:17:03.938Z,18.1
2019-01-12T13:17:53.149Z,18.1
2019-01-12T13:18:44.314Z,18
2019-01-12T13:19:33.599Z,18.1
2019-01-12T13:20:25.912Z,18.1
2019-01-12T13:21:14.512Z,18
2019-01-12T13:22:04.543Z,18.1
2019-01-12T13:22:55.692Z,18.1
2019-01-12T13:23:44.952Z,18.1
2019-01-12T13:24:34.729Z,18.1
2019-01-12T13:25:24.557Z,18.1
2019-01-12T13:26:15.167Z,18
2019-01-12T13:27:05.522Z,18.1
2019-01-12T13:27:54.666Z,18.1
2019-01-12T13:28:44.441Z,18.2
2019-01-12T13:29:34.758Z,18.4
2019-01-12T13:30:25.399Z,18.4
2019-01-12T13:31:14.341Z,18.6
2019-01-12T13:32:05.291Z,18.6
2019-01-12T13:32:54.314Z,18.6
2019-01-12T13:33:44.354Z,18.6
2019-01-12T13:34:35.415Z,18.5
2019-01-12T13:35:25.281Z,18.4
2019-01-12T13:36:15.241Z,18.4
2019-01-12T13:37:06.065Z,18.4
2019-01-12T13:37:56.231Z,18.4
2019-01-12T13:38:44.856Z,18.3
2019-01-12T13:39:41.098Z,18.3
2019-01-12T13:40:27.343Z,18.3
2019-01-12T13:41:16.250Z,18.3
2019-01-12T13:42:04.888Z,18.2
2019-01-12T13:42:55.465Z,18.1
2019-01-12T13:43:46.027Z,18.1
2019-01-12T13:44:35.828Z,18
2019-01-12T13:45:26.695Z,17.9
2019-01-12T13:46:16.190Z,17.9
2019-01-12T13:47:06.545Z,17.9
2019-01-12T13:47:56.910Z,17.8
2019-01-12T13:48:46.759Z,17.7
2019-01-12T13:49:36.435Z,17.6
2019-01-12T13:50:25.477Z,17.5
2019-01-12T13:51:16.827Z,17.4
2019-01-12T13:52:06.658Z,17.3
2019-01-12T13:52:57.538Z,17.3
2019-01-12T13:53:45.690Z,17.1
2019-01-12T13:54:37.517Z,17.1
2019-01-12T13:56:16.049Z,16.9
2019-01-12T13:57:07.220Z,16.9
2019-01-12T13:57:57.867Z,16.8
2019-01-12T13:58:47.905Z,16.7
2019-01-12T13:59:37.152Z,16.6
2019-01-12T14:00:26.424Z,16.6
2019-01-12T14:01:17.522Z,16.4
2019-01-12T14:02:07.594Z,16.4
2019-01-12T14:02:57.557Z,16.3
2019-01-12T14:03:47.469Z,16.3
2019-01-12T14:04:37.217Z,16.2
2019-01-12T14:05:28.135Z,16.1
2019-01-12T14:06:18.119Z,16
2019-01-12T14:07:09.492Z,16
2019-01-12T14:08:05.469Z,15.9
2019-01-12T14:08:47.459Z,15.8
2019-01-12T14:09:50.767Z,15.8
2019-01-12T14:10:27.651Z,15.8
2019-01-12T14:11:17.200Z,15.7
2019-01-12T14:12:06.749Z,15.6
2019-01-12T14:12:57.371Z,15.6
2019-01-12T14:13:48.266Z,15.6
2019-01-12T14:14:38.236Z,15.5
2019-01-12T14:15:27.461Z,15.4
2019-01-12T14:16:17.674Z,15.4
2019-01-12T14:17:08.638Z,15.4
2019-01-12T14:17:58.694Z,15.3
2019-01-12T14:18:48.511Z,15.3
2019-01-12T14:19:39.056Z,15.2
2019-01-12T14:20:28.583Z,15.1
2019-01-12T14:21:18.670Z,15.1
2019-01-12T14:22:08.718Z,15.1
2019-01-12T14:22:58.723Z,15
2019-01-12T14:23:48.781Z,15
2019-01-12T14:24:39.168Z,14.9
2019-01-12T14:25:30.727Z,14.9
2019-01-12T14:26:18.403Z,14.8
2019-01-12T14:27:08.735Z,14.8
2019-01-12T14:28:03.477Z,14.8
2019-01-12T14:28:47.773Z,14.7
2019-01-12T14:29:38.907Z,14.6
2019-01-12T14:30:29.509Z,14.6
2019-01-12T14:31:19.590Z,14.6
2019-01-12T14:32:09.891Z,14.6
2019-01-12T14:32:59.745Z,14.6
2019-01-12T14:33:49.786Z,14.5
2019-01-12T14:34:39.547Z,14.4
2019-01-12T14:35:29.375Z,14.4
2019-01-12T14:36:19.439Z,14.4
2019-01-12T14:37:09.427Z,14.4
2019-01-12T14:37:59.788Z,14.3
2019-01-12T14:38:49.364Z,14.3
2019-01-12T14:39:39.613Z,14.3
2019-01-12T14:40:30.530Z,14.2
2019-01-12T14:41:19.609Z,14.2
2019-01-12T14:42:10.042Z,14.2
2019-01-12T14:43:00.383Z,14.1
2019-01-12T14:43:50.437Z,14.1
2019-01-12T14:44:39.230Z,14.1
2019-01-12T14:45:29.705Z,14
2019-01-12T14:46:19.786Z,13.9
2019-01-12T14:47:10.377Z,13.9
2019-01-12T14:47:59.982Z,13.9
2019-01-12T14:48:50.259Z,13.8
2019-01-12T14:49:40.849Z,13.8
2019-01-12T14:50:30.342Z,13.8
2019-01-12T14:51:20.505Z,13.8
2019-01-12T14:52:10.239Z,13.7
2019-01-12T14:53:00.246Z,13.7
2019-01-12T14:53:50.867Z,13.6
2019-01-12T14:54:41.461Z,13.6
2019-01-12T14:55:30.991Z,13.6
2019-01-12T14:56:20.009Z,13.6
2019-01-12T14:57:11.090Z,13.5
2019-01-12T14:58:09.889Z,13.5
2019-01-12T14:58:51.083Z,13.4
2019-01-12T14:59:40.371Z,13.4
2019-01-12T15:00:30.968Z,13.4
2019-01-12T15:01:21.993Z,13.4
2019-01-12T15:02:10.444Z,13.3
2019-01-12T15:03:01.016Z,13.3
2019-01-12T15:03:51.985Z,13.3
2019-01-12T15:04:41.864Z,13.3
2019-01-12T15:05:32.698Z,13.3
2019-01-12T15:06:21.858Z,13.3
2019-01-12T15:07:11.552Z,13.3
2019-01-12T15:08:02.132Z,13.2
2019-01-12T15:08:51.885Z,13.2
2019-01-12T15:09:42.200Z,13.1
2019-01-12T15:10:30.778Z,13.1
2019-01-12T15:11:21.245Z,13.2
2019-01-12T15:12:12.643Z,13.3
2019-01-12T15:13:02.450Z,13.5
2019-01-12T15:13:52.823Z,13.8
2019-01-12T15:14:43.095Z,14.3
2019-01-12T15:15:32.325Z,14.6
2019-01-12T15:16:22.640Z,15.1
2019-01-12T15:17:27.354Z,20.1
2019-01-12T15:18:02.216Z,29.8
2019-01-12T15:18:53.087Z,30.1
2019-01-12T15:19:42.577Z,30.7
2019-01-12T15:20:32.666Z,31.4
2019-01-12T15:21:21.879Z,32.2
2019-01-12T15:22:13.334Z,34.3
2019-01-12T15:23:03.113Z,37.7
2019-01-12T15:23:52.936Z,41.8
2019-01-12T15:24:43.482Z,42.6
2019-01-12T15:25:33.294Z,41
2019-01-12T15:26:22.286Z,40.1
2019-01-12T15:27:12.931Z,39.8
2019-01-12T15:28:10.685Z,39.7
2019-01-12T15:28:53.297Z,39.8
2019-01-12T15:29:43.088Z,39.8
2019-01-12T15:30:33.374Z,39.8
2019-01-12T15:31:25.995Z,39.9
2019-01-12T15:32:14.261Z,39.9
2019-01-12T15:33:03.512Z,40
2019-01-12T15:33:52.855Z,40.1
2019-01-12T15:34:43.875Z,40.1
2019-01-12T15:35:32.927Z,40.2
2019-01-12T15:36:23.790Z,40.1
2019-01-12T15:37:14.040Z,40.1
2019-01-12T15:38:04.177Z,40
2019-01-12T15:38:54.190Z,39.9
2019-01-12T15:39:44.215Z,39.9
2019-01-12T15:40:33.715Z,39.9
2019-01-12T15:41:23.772Z,39.8
2019-01-12T15:42:13.320Z,39.8
2019-01-12T15:43:04.430Z,39.7
2019-01-12T15:43:54.005Z,39.6
2019-01-12T15:44:43.457Z,39.6
2019-01-12T15:45:34.916Z,39.6
2019-01-12T15:46:24.672Z,39.6
2019-01-12T15:47:13.462Z,39.5
2019-01-12T15:48:04.254Z,39.6